Racecast

Kaycee Clark-Mellott

Cheyenne Central (WY) · 12 · EASTWY D4A4A · Compare head to head

Athlete ratingi 118.8 2019 TF season
Best race 120.7 XC
Races 81
Seasons 5 2015 — 2019

RankedNation #18743·WY #69·WY D4A #38·EAST #17·Team #9 ?

Speed rating — all races

Cross Country

XC speed rating

2018 XC 114.8

Cheyenne Central (WY) · Grade 12

Date Meet Event Result Place Ratingi Difficultyi PR/SR Flags
2018-10-20 Sheridan VA Medical Center 5000m 18:32.7 54th · 7th on team 115.0 +0.3% ★CR CSR
2018-10-11 CAM-PLEX Park 5000m 18:48.3 23rd · 6th on team 114.2 +1.1% ★CR CSR
2018-10-05 Prairie View Golf Course 5000m 18:08.2 24th · 7th on team 117.0 -0.2% ★CR CSR
2018-09-28 Margaret W. Carpenter Recreation Center 5000m 17:43 2nd · 1st on team 118.2 -0.8% ★CR CSR
2018-09-21 North Lake Park 5000m 20:10 148th · 9th on team 107.3 +1.8% ★CR CSR
2018-09-08 Heritage High School 5000m 17:10.6 21st · 1st on team 120.7 -2.3% ★PR ★CR ★R SR CSR RSR
2018-08-31 Adams County Regional Park 5000m 18:38 31st · 5th on team 117.8 +2.5% PR ★CR SR CSR RSR
2018-08-24 Casper Mountain Road 5000m 21:05 46th · 6th on team 108.3 +7.7% ★CR SR CSR RSR

2017 XC 105.9

Cheyenne Central (WY) · Grade 11

Date Meet Event Result Place Ratingi Difficultyi PR/SR Flags
2017-09-29 Margaret W. Carpenter Recreation Center 5000m 19:05 162nd · 9th on team 109.4 -0.8% SR CSR RSR
2017-09-08 Heritage High School 5000m 19:30 76th · 3rd on team 105.5 -2.3% SR CSR RSR
2017-09-01 Adams County Regional Park 5000m 20:53 72nd · 10th on team 103.6 +2.5% CSR
2017-08-25 Cherry Creek State Park 5000m 20:21 13th · 2nd on team 105.1 +1.0% ★CR SR CSR RSR

2016 XC 107.9

Cheyenne Central (WY) · Grade 10

Date Meet Event Result Place Ratingi Difficultyi PR/SR Flags
2016-10-14 Prairie View Golf Course 5000m 19:22.5 10th · 5th on team 109.0 -0.2% CR CSR
2016-09-30 Margaret W. Carpenter Recreation Center 5000m 18:56 15th · 3rd on team 111.1 -0.8% PR CR R SR CSR RSR
2016-09-17 Fort Collins High School 5000m 19:29 59th · 6th on team 108.7 0.0% ★CR R CSR RSR
2016-09-09 Heritage High School 5000m 19:19 78th · 6th on team 107.4 -2.3% PR CR R SR CSR RSR
2016-09-02 Adams County Regional Park 5000m 20:42 131st · 13th on team 103.1 +2.5% CR SR CSR RSR

2015 XC 94.4

Cheyenne Central (WY) · Grade 9

Date Meet Event Result Place Ratingi Difficultyi PR/SR Flags
2015-10-09 Prairie View Golf Course 5000m 19:46.6 15th · 6th on team 106.8 -0.2% PR CR R SR CSR RSR
2015-10-06 Northwest Open Space 5000m 20:38 96th · 9th on team 101.8 -0.3% PR ★CR R SR CSR RSR
2015-10-02 Margaret W. Carpenter Recreation Center 5000m 21:31 112th · 6th on team 97.9 -0.8% PR CR R SR CSR RSR
2015-09-25 North Lake Park 4000m 18:16 67th · 9th on team 71.3 0.0% ★PR ★CR R SR CSR RSR
2015-09-04 Adams County Regional Park 5000m 24:48 240th · 19th on team +2.5% PR CR SR CSR

Track & Field

TF speed rating

2019 TF 115.4

Cheyenne Central (WY) · Grade 12

Date Meet Event Result Place Ratingi Difficultyi PR/SR Flags
2019-05-11 Wyoming 1A-2A-4A East Regional 400m 54.87 13th · 1st on team -1.3% SR
2019-05-03 Wiseman Invite 800m 2:10.6 5th · 4th on team 119.3 +2.6%
2019-05-03 Wiseman Invite 400m 55 9th · 2nd on team +2.6% SR
2019-04-27 Liberty Bell Invitational 400m 55.43 38th · 2nd on team +1.7%
2019-04-27 Liberty Bell Invitational 800m 2:12.24 52nd · 1st on team 117.0 +1.7%
2019-04-18 Cheyenne Central Invitational 400m 56.51 2nd · 1st on team +4.4%
2019-04-18 Cheyenne Central Invitational 1600m 5:22.25 13th · 9th on team 110.8 +4.4%
2019-03-01 Wyoming State Indoor Championships 800m 2:09.93 19th · 2nd on team 120.1 +1.1% ★PR SR RSR
2019-02-22 Wyoming Last Chance Qualifier 55m 7.32 29th · 8th on team +3.0% SR
2019-02-09 NC Mustang-Fillies Indoor Invitational 1600m 5:15.98 22nd · 4th on team 111.3 +3.2% ★PR SR
2019-02-09 NC Mustang-Fillies Indoor Invitational 400m 55.2 5th · 1st on team +3.2% SR
2019-02-02 Kevin Salverson Invitational 800m 2:19.08 4th · 4th on team 114.3 +4.4%
2019-02-02 Kevin Salverson Invitational 400m 58.62 1st · 1st on team +4.4%
2019-01-24 Wyoming HS Open 400m 57.1 3rd · 2nd on team +3.0% SR
2019-01-19 Gillette Invitational 400m 57.82 18th · 1st on team +1.1% SR
2019-01-12 Natrona Indoor Invitational 800m 2:16.94 4th · 2nd on team 114.8 +3.2% SR RSR

2018 TF 113.1

Cheyenne Central (WY) · Grade 11

Date Meet Event Result Place Ratingi Difficultyi PR/SR Flags
2018-05-04 2018 Wiseman Invitational 400m 55.01 10th · 3rd on team +2.2% SR
2018-04-28 Kelly Walsh Invitational 400m 55.67 13th · 1st on team +2.3% SR
2018-04-28 Casper Invite 400m 55.67 13th · 1st on team +0.6%
2018-04-21 Cheyenne Central Invitational 800m 2:12.95 4th · 2nd on team 119.2 +4.4% PR R SR RSR
2018-04-21 Cheyenne Central Invitational 200m 25.96 5th · 1st on team +4.4%
2018-04-12 Okie Blanchard Invitational 400m 56.62 11th · 2nd on team +4.1% SR
2018-04-07 David S. D'Evelyn Invitational 800m 2:15.57 13th · 1st on team 114.8 +2.1% R SR RSR
2018-03-23 Runners Roost of Fort Collins Invitational 400m 58.5 31st · 2nd on team +2.0%
2018-03-23 Runners Roost of Fort Collins Invitational 200m 25.3 32nd · 1st on team +2.0% ★PR SR
2018-02-23 Laramie HS Meet 800m 2:24.12 19th · 4th on team 111.4 +3.0% SR RSR
2018-01-13 Stadium Sports Grill HS Open 400m 58.36 13th · 3rd on team +0.9% SR
2018-01-13 Stadium Sports Grill HS Open 800m 2:24.96 24th · 4th on team 107.1 +0.9% SR RSR

2017 TF 113.8

Cheyenne Central (WY) · Grade 10

Date Meet Event Result Place Ratingi Difficultyi PR/SR Flags
2017-05-13 WHSAA 4A East Regional 400m 53.55 16th · 2nd on team +2.2% ★PR SR
2017-05-05 Wiseman Invite 800m 2:15.4 9th · 3rd on team 113.7 +2.2% PR SR
2017-05-02 Central Freshmen/Sophomore 400m 56.46 3rd · 1st on team +4.4% PR SR
2017-05-02 Central Freshmen/Sophomore 100m 12.37 11th · 1st on team +4.4% ★PR SR
2017-04-15 Mountain Range Mustang Invitational 400m 56.59 31st · 2nd on team +2.6%
2017-04-13 South Twilight 800m 2:17.7 10th · 4th on team 113.8 +3.3% PR R SR RSR
2017-04-07 Okie Blanchard Invitational 100m 12.86 16th · 2nd on team +4.1% PR SR
2017-04-07 Okie Blanchard Invitational 200m 25.69 15th · 2nd on team +4.1% SR
2017-04-01 Altitude Running Invitational 400m 56.8 22nd · 2nd on team +2.1%
2017-03-25 Runners Roost of Fort Collins Invitational 200m 25.98 54th · 2nd on team +2.0%
2017-03-25 Runners Roost of Fort Collins Invitational 400m 56.49 33rd · 3rd on team +2.0% PR SR
2017-03-03 Wyoming State Indoor Track Championships 400m 56.97 29th · 4th on team +1.1% PR SR
2017-02-10 Laramie-Shine Invitational 55m 7.16 50th · 10th on team +3.0% ★PR SR
2017-02-10 Laramie-Shine Invitational 200m 25.95 39th · 11th on team +3.0%
2017-02-10 Laramie-Shine Invitational 400m 1:01.32 22nd · 2nd on team +3.0%
2017-02-04 Kevin Salverson Invitational 400m 1:00.18 4th · 4th on team +4.4%
2017-01-21 Campbell County Indoor 200m 25.94 41st · 5th on team +1.1% SR
2017-01-21 Campbell County Indoor 60m 8.18 103rd · 11th on team +1.1%
2017-01-14 Stadium Sports Grill HS Classic 200m 26.85 55th · 6th on team +0.9% SR
2017-01-14 Stadium Sports Grill HS Classic 60m 8.15 73rd · 7th on team +0.9% ★PR SR
2017-01-14 Stadium Sports Grill HS Classic 400m 59.13 18th · 4th on team +0.9% SR

2016 TF 105.4

Cheyenne Central (WY) · Grade 9

Date Meet Event Result Place Ratingi Difficultyi PR/SR Flags
2016-05-13 4A East Regional 200m 25.79 20th · 3rd on team +4.1%
2016-05-13 4A East Regional 400m 59.04 20th · 4th on team +4.1%
2016-04-22 Pine Bluffs Invite 200m 27.12 24th · 2nd on team +4.0%
2016-04-22 Pine Bluffs Invite 400m 1:00.16 11th · 2nd on team +4.0%
2016-04-15 Burns Invite 400m 57.9 13th · 3rd on team +2.6%
2016-04-08 Okie Blanch Invite 400m 58.5 6th · 2nd on team +4.1%
2016-04-08 Okie Blanch Invite 200m 25.62 7th · 2nd on team +4.1% PR SR
2016-04-02 Altitude Running Invitational 400m 57.12 23rd · 3rd on team +2.1% PR SR
2016-01-23 Campbell County HS Indoor Invitational 400m 1:02.46 26th · 3rd on team +1.1% PR SR
2016-01-23 Campbell County HS Indoor Invitational 1600m 5:29.79 36th · 10th on team 105.4 +1.1% PR SR RSR